sensor_id;sensor_type;location;lat;lon;timestamp;temperature;humidity
21104;DHT22;10710;53.398;-1.514;2023-06-19T00:02:44;17.40;99.90
21104;DHT22;10710;53.398;-1.514;2023-06-19T00:05:37;17.50;99.90
21104;DHT22;10710;53.398;-1.514;2023-06-19T00:08:25;17.50;99.90
21104;DHT22;10710;53.398;-1.514;2023-06-19T00:11:23;17.70;99.90
21104;DHT22;10710;53.398;-1.514;2023-06-19T00:14:08;17.70;99.90
21104;DHT22;10710;53.398;-1.514;2023-06-19T00:16:53;17.70;99.90
21104;DHT22;10710;53.398;-1.514;2023-06-19T00:19:38;17.70;99.90
21104;DHT22;10710;53.398;-1.514;2023-06-19T00:22:24;17.60;99.90
21104;DHT22;10710;53.398;-1.514;2023-06-19T00:25:09;17.50;99.90
21104;DHT22;10710;53.398;-1.514;2023-06-19T00:27:54;17.30;99.90
21104;DHT22;10710;53.398;-1.514;2023-06-19T00:30:40;17.30;99.90
21104;DHT22;10710;53.398;-1.514;2023-06-19T00:33:24;17.30;99.90
21104;DHT22;10710;53.398;-1.514;2023-06-19T00:36:10;17.40;99.90
21104;DHT22;10710;53.398;-1.514;2023-06-19T00:38:55;17.40;99.90
21104;DHT22;10710;53.398;-1.514;2023-06-19T00:41:40;17.40;99.90
21104;DHT22;10710;53.398;-1.514;2023-06-19T00:44:25;17.40;99.90
21104;DHT22;10710;53.398;-1.514;2023-06-19T00:47:10;17.40;99.90
21104;DHT22;10710;53.398;-1.514;2023-06-19T00:49:55;17.40;99.90
21104;DHT22;10710;53.398;-1.514;2023-06-19T00:52:39;17.50;99.90
21104;DHT22;10710;53.398;-1.514;2023-06-19T00:55:28;17.50;99.90
21104;DHT22;10710;53.398;-1.514;2023-06-19T00:58:14;17.40;99.90
21104;DHT22;10710;53.398;-1.514;2023-06-19T01:00:59;17.40;99.90
21104;DHT22;10710;53.398;-1.514;2023-06-19T01:03:43;17.50;99.90
21104;DHT22;10710;53.398;-1.514;2023-06-19T01:06:37;17.60;99.90
21104;DHT22;10710;53.398;-1.514;2023-06-19T01:09:31;17.60;99.90
21104;DHT22;10710;53.398;-1.514;2023-06-19T01:12:25;17.60;99.90
21104;DHT22;10710;53.398;-1.514;2023-06-19T01:15:10;17.60;99.90
21104;DHT22;10710;53.398;-1.514;2023-06-19T01:17:56;17.60;99.90
21104;DHT22;10710;53.398;-1.514;2023-06-19T01:20:42;17.60;99.90
21104;DHT22;10710;53.398;-1.514;2023-06-19T01:23:26;17.60;99.90
21104;DHT22;10710;53.398;-1.514;2023-06-19T01:26:12;17.60;99.90
21104;DHT22;10710;53.398;-1.514;2023-06-19T01:28:57;17.60;99.90
21104;DHT22;10710;53.398;-1.514;2023-06-19T01:31:56;17.40;99.90
21104;DHT22;10710;53.398;-1.514;2023-06-19T01:34:43;17.40;99.90
21104;DHT22;10710;53.398;-1.514;2023-06-19T01:37:28;17.50;99.90
21104;DHT22;10710;53.398;-1.514;2023-06-19T01:40:14;17.40;99.90
21104;DHT22;10710;53.398;-1.514;2023-06-19T01:43:00;17.40;99.90
21104;DHT22;10710;53.398;-1.514;2023-06-19T01:45:48;17.50;99.90
21104;DHT22;10710;53.398;-1.514;2023-06-19T01:48:35;17.50;99.90
21104;DHT22;10710;53.398;-1.514;2023-06-19T01:51:20;17.50;99.90
21104;DHT22;10710;53.398;-1.514;2023-06-19T01:54:05;17.40;99.90
21104;DHT22;10710;53.398;-1.514;2023-06-19T01:56:51;17.30;99.90
21104;DHT22;10710;53.398;-1.514;2023-06-19T01:59:35;17.20;99.90
21104;DHT22;10710;53.398;-1.514;2023-06-19T02:02:20;17.20;99.90
21104;DHT22;10710;53.398;-1.514;2023-06-19T02:05:05;17.10;99.90
21104;DHT22;10710;53.398;-1.514;2023-06-19T02:07:49;17.00;99.90
21104;DHT22;10710;53.398;-1.514;2023-06-19T02:10:34;17.00;99.90
21104;DHT22;10710;53.398;-1.514;2023-06-19T02:13:18;17.00;99.90
21104;DHT22;10710;53.398;-1.514;2023-06-19T02:16:03;16.90;99.90
21104;DHT22;10710;53.398;-1.514;2023-06-19T02:18:48;17.00;99.90
21104;DHT22;10710;53.398;-1.514;2023-06-19T02:21:32;16.90;99.90
21104;DHT22;10710;53.398;-1.514;2023-06-19T02:24:17;17.00;99.90
21104;DHT22;10710;53.398;-1.514;2023-06-19T02:27:01;16.90;99.90
21104;DHT22;10710;53.398;-1.514;2023-06-19T02:29:46;16.70;99.90
21104;DHT22;10710;53.398;-1.514;2023-06-19T02:32:31;16.70;99.90
21104;DHT22;10710;53.398;-1.514;2023-06-19T02:35:16;16.70;99.90
21104;DHT22;10710;53.398;-1.514;2023-06-19T02:38:01;16.60;99.90
21104;DHT22;10710;53.398;-1.514;2023-06-19T02:40:48;16.70;99.90
21104;DHT22;10710;53.398;-1.514;2023-06-19T02:43:33;16.80;99.90
21104;DHT22;10710;53.398;-1.514;2023-06-19T02:46:17;16.80;99.90
21104;DHT22;10710;53.398;-1.514;2023-06-19T02:49:02;16.80;99.90
21104;DHT22;10710;53.398;-1.514;2023-06-19T02:51:46;16.80;99.90
21104;DHT22;10710;53.398;-1.514;2023-06-19T02:54:30;16.90;99.90
21104;DHT22;10710;53.398;-1.514;2023-06-19T02:57:15;16.80;99.90
21104;DHT22;10710;53.398;-1.514;2023-06-19T02:59:59;16.90;99.90
21104;DHT22;10710;53.398;-1.514;2023-06-19T03:02:43;16.80;99.90
21104;DHT22;10710;53.398;-1.514;2023-06-19T03:05:28;16.80;99.90
21104;DHT22;10710;53.398;-1.514;2023-06-19T03:08:12;16.80;99.90
21104;DHT22;10710;53.398;-1.514;2023-06-19T03:10:56;16.80;99.90
21104;DHT22;10710;53.398;-1.514;2023-06-19T03:13:50;16.70;99.90
21104;DHT22;10710;53.398;-1.514;2023-06-19T03:16:35;16.70;99.90
21104;DHT22;10710;53.398;-1.514;2023-06-19T03:19:19;16.70;99.90
21104;DHT22;10710;53.398;-1.514;2023-06-19T03:22:03;16.70;99.90
21104;DHT22;10710;53.398;-1.514;2023-06-19T03:24:48;16.80;99.90
21104;DHT22;10710;53.398;-1.514;2023-06-19T03:27:32;16.70;99.90
21104;DHT22;10710;53.398;-1.514;2023-06-19T03:30:17;16.60;99.90
21104;DHT22;10710;53.398;-1.514;2023-06-19T03:33:02;16.60;99.90
21104;DHT22;10710;53.398;-1.514;2023-06-19T03:35:46;16.60;99.90
21104;DHT22;10710;53.398;-1.514;2023-06-19T03:38:30;16.60;99.90
21104;DHT22;10710;53.398;-1.514;2023-06-19T03:41:14;16.60;99.90
21104;DHT22;10710;53.398;-1.514;2023-06-19T03:43:59;16.60;99.90
21104;DHT22;10710;53.398;-1.514;2023-06-19T03:46:43;16.50;99.90
21104;DHT22;10710;53.398;-1.514;2023-06-19T03:49:27;16.50;99.90
21104;DHT22;10710;53.398;-1.514;2023-06-19T03:52:11;16.40;99.90
21104;DHT22;10710;53.398;-1.514;2023-06-19T03:54:55;16.40;99.90
21104;DHT22;10710;53.398;-1.514;2023-06-19T03:57:40;16.40;99.90
21104;DHT22;10710;53.398;-1.514;2023-06-19T04:00:24;16.40;99.90
21104;DHT22;10710;53.398;-1.514;2023-06-19T04:03:08;16.40;99.90
21104;DHT22;10710;53.398;-1.514;2023-06-19T04:05:53;16.40;99.90
21104;DHT22;10710;53.398;-1.514;2023-06-19T04:08:37;16.40;99.90
21104;DHT22;10710;53.398;-1.514;2023-06-19T04:11:22;16.40;99.90
21104;DHT22;10710;53.398;-1.514;2023-06-19T04:14:06;16.40;99.90
21104;DHT22;10710;53.398;-1.514;2023-06-19T04:16:50;16.40;99.90
21104;DHT22;10710;53.398;-1.514;2023-06-19T04:19:34;16.30;99.90
21104;DHT22;10710;53.398;-1.514;2023-06-19T04:22:18;16.30;99.90
21104;DHT22;10710;53.398;-1.514;2023-06-19T04:25:03;16.30;99.90
21104;DHT22;10710;53.398;-1.514;2023-06-19T04:27:47;16.10;99.90
21104;DHT22;10710;53.398;-1.514;2023-06-19T04:30:32;16.10;99.90
21104;DHT22;10710;53.398;-1.514;2023-06-19T04:33:17;16.00;99.90
21104;DHT22;10710;53.398;-1.514;2023-06-19T04:36:05;16.00;99.90
21104;DHT22;10710;53.398;-1.514;2023-06-19T04:38:49;16.10;99.90
21104;DHT22;10710;53.398;-1.514;2023-06-19T04:41:35;16.10;99.90
21104;DHT22;10710;53.398;-1.514;2023-06-19T04:44:22;16.20;99.90
21104;DHT22;10710;53.398;-1.514;2023-06-19T04:47:06;16.20;99.90
21104;DHT22;10710;53.398;-1.514;2023-06-19T04:49:51;16.10;99.90
21104;DHT22;10710;53.398;-1.514;2023-06-19T04:52:35;16.30;99.90
21104;DHT22;10710;53.398;-1.514;2023-06-19T04:55:19;16.30;99.90
21104;DHT22;10710;53.398;-1.514;2023-06-19T04:58:04;16.40;99.90
21104;DHT22;10710;53.398;-1.514;2023-06-19T05:00:49;16.40;99.90
21104;DHT22;10710;53.398;-1.514;2023-06-19T05:03:36;16.40;99.90
21104;DHT22;10710;53.398;-1.514;2023-06-19T05:06:23;16.40;99.90
21104;DHT22;10710;53.398;-1.514;2023-06-19T05:09:07;16.40;99.90
21104;DHT22;10710;53.398;-1.514;2023-06-19T05:11:52;16.40;99.90
21104;DHT22;10710;53.398;-1.514;2023-06-19T05:14:37;16.40;99.90
21104;DHT22;10710;53.398;-1.514;2023-06-19T05:17:22;16.40;99.90
21104;DHT22;10710;53.398;-1.514;2023-06-19T05:27:58;16.60;99.90
21104;DHT22;10710;53.398;-1.514;2023-06-19T05:30:51;16.60;99.90
21104;DHT22;10710;53.398;-1.514;2023-06-19T05:42:19;16.60;99.90
21104;DHT22;10710;53.398;-1.514;2023-06-19T05:46:02;16.60;99.90
21104;DHT22;10710;53.398;-1.514;2023-06-19T06:01:06;16.60;99.90
21104;DHT22;10710;53.398;-1.514;2023-06-19T06:04:49;16.70;99.90
21104;DHT22;10710;53.398;-1.514;2023-06-19T06:15:21;16.90;99.90
21104;DHT22;10710;53.398;-1.514;2023-06-19T06:22:52;17.20;99.90
21104;DHT22;10710;53.398;-1.514;2023-06-19T06:25:48;17.20;99.90
21104;DHT22;10710;53.398;-1.514;2023-06-19T06:29:03;17.40;99.90
21104;DHT22;10710;53.398;-1.514;2023-06-19T06:32:16;17.40;99.90
21104;DHT22;10710;53.398;-1.514;2023-06-19T06:35:10;17.40;99.90
21104;DHT22;10710;53.398;-1.514;2023-06-19T06:37:55;17.40;99.90
21104;DHT22;10710;53.398;-1.514;2023-06-19T06:40:59;17.60;99.90
21104;DHT22;10710;53.398;-1.514;2023-06-19T06:44:20;17.80;99.90
21104;DHT22;10710;53.398;-1.514;2023-06-19T06:47:34;17.90;99.90
21104;DHT22;10710;53.398;-1.514;2023-06-19T06:50:50;17.90;99.90
21104;DHT22;10710;53.398;-1.514;2023-06-19T06:53:59;18.10;99.90
21104;DHT22;10710;53.398;-1.514;2023-06-19T06:57:07;18.10;99.90
21104;DHT22;10710;53.398;-1.514;2023-06-19T06:59:58;18.10;99.90
21104;DHT22;10710;53.398;-1.514;2023-06-19T07:02:51;18.00;99.90
21104;DHT22;10710;53.398;-1.514;2023-06-19T07:05:39;18.10;99.90
21104;DHT22;10710;53.398;-1.514;2023-06-19T07:08:53;18.20;99.90
21104;DHT22;10710;53.398;-1.514;2023-06-19T07:15:42;18.50;99.90
21104;DHT22;10710;53.398;-1.514;2023-06-19T07:18:32;18.60;99.90
21104;DHT22;10710;53.398;-1.514;2023-06-19T07:21:18;18.60;99.90
21104;DHT22;10710;53.398;-1.514;2023-06-19T07:24:03;18.70;99.90
21104;DHT22;10710;53.398;-1.514;2023-06-19T07:30:20;18.50;99.90
21104;DHT22;10710;53.398;-1.514;2023-06-19T07:33:25;18.50;99.90
21104;DHT22;10710;53.398;-1.514;2023-06-19T07:36:10;18.60;99.90
21104;DHT22;10710;53.398;-1.514;2023-06-19T07:38:58;18.60;99.90
21104;DHT22;10710;53.398;-1.514;2023-06-19T07:41:42;18.50;99.90
21104;DHT22;10710;53.398;-1.514;2023-06-19T07:44:26;18.70;99.90
21104;DHT22;10710;53.398;-1.514;2023-06-19T07:47:10;18.80;99.90
21104;DHT22;10710;53.398;-1.514;2023-06-19T07:49:55;18.80;99.90
21104;DHT22;10710;53.398;-1.514;2023-06-19T07:52:39;18.80;99.90
21104;DHT22;10710;53.398;-1.514;2023-06-19T07:55:23;18.90;99.90
21104;DHT22;10710;53.398;-1.514;2023-06-19T07:58:08;19.20;99.90
21104;DHT22;10710;53.398;-1.514;2023-06-19T08:00:52;19.10;99.90
21104;DHT22;10710;53.398;-1.514;2023-06-19T08:03:36;19.10;99.90
21104;DHT22;10710;53.398;-1.514;2023-06-19T08:06:22;19.30;99.90
21104;DHT22;10710;53.398;-1.514;2023-06-19T08:09:06;19.50;99.90
21104;DHT22;10710;53.398;-1.514;2023-06-19T08:11:50;19.50;99.90
21104;DHT22;10710;53.398;-1.514;2023-06-19T08:14:34;19.70;99.90
21104;DHT22;10710;53.398;-1.514;2023-06-19T08:17:19;19.80;99.90
21104;DHT22;10710;53.398;-1.514;2023-06-19T08:20:04;19.90;99.90
21104;DHT22;10710;53.398;-1.514;2023-06-19T08:22:50;19.70;99.90
21104;DHT22;10710;53.398;-1.514;2023-06-19T08:25:35;19.80;99.90
21104;DHT22;10710;53.398;-1.514;2023-06-19T08:28:20;20.10;99.90
21104;DHT22;10710;53.398;-1.514;2023-06-19T08:31:06;20.10;99.90
21104;DHT22;10710;53.398;-1.514;2023-06-19T08:33:50;20.10;99.90
21104;DHT22;10710;53.398;-1.514;2023-06-19T08:36:36;20.30;99.90
21104;DHT22;10710;53.398;-1.514;2023-06-19T08:39:20;20.40;99.90
21104;DHT22;10710;53.398;-1.514;2023-06-19T08:42:08;20.50;99.90
21104;DHT22;10710;53.398;-1.514;2023-06-19T08:44:53;20.40;99.90
21104;DHT22;10710;53.398;-1.514;2023-06-19T08:47:38;20.20;99.90
21104;DHT22;10710;53.398;-1.514;2023-06-19T08:50:22;20.30;99.90
21104;DHT22;10710;53.398;-1.514;2023-06-19T08:53:06;20.30;99.90
21104;DHT22;10710;53.398;-1.514;2023-06-19T08:55:50;20.50;99.90
21104;DHT22;10710;53.398;-1.514;2023-06-19T08:58:35;20.40;99.90
21104;DHT22;10710;53.398;-1.514;2023-06-19T09:01:20;20.40;99.90
21104;DHT22;10710;53.398;-1.514;2023-06-19T09:04:14;20.40;99.90
21104;DHT22;10710;53.398;-1.514;2023-06-19T09:07:01;20.40;99.90
21104;DHT22;10710;53.398;-1.514;2023-06-19T09:09:48;20.60;99.90
21104;DHT22;10710;53.398;-1.514;2023-06-19T09:12:33;20.60;99.90
21104;DHT22;10710;53.398;-1.514;2023-06-19T09:15:18;20.70;99.90
21104;DHT22;10710;53.398;-1.514;2023-06-19T09:18:10;20.70;99.90
21104;DHT22;10710;53.398;-1.514;2023-06-19T09:20:55;20.70;99.90
21104;DHT22;10710;53.398;-1.514;2023-06-19T09:23:40;20.70;99.90
21104;DHT22;10710;53.398;-1.514;2023-06-19T09:26:25;20.90;99.90
21104;DHT22;10710;53.398;-1.514;2023-06-19T09:29:14;21.00;99.90
21104;DHT22;10710;53.398;-1.514;2023-06-19T09:31:59;21.10;99.90
21104;DHT22;10710;53.398;-1.514;2023-06-19T09:34:44;21.40;99.90
21104;DHT22;10710;53.398;-1.514;2023-06-19T09:37:29;21.50;99.90
21104;DHT22;10710;53.398;-1.514;2023-06-19T09:40:14;21.50;99.90
21104;DHT22;10710;53.398;-1.514;2023-06-19T09:42:59;21.60;99.90
21104;DHT22;10710;53.398;-1.514;2023-06-19T09:45:47;21.60;99.90
21104;DHT22;10710;53.398;-1.514;2023-06-19T09:48:34;21.70;99.90
21104;DHT22;10710;53.398;-1.514;2023-06-19T09:51:30;21.70;99.90
21104;DHT22;10710;53.398;-1.514;2023-06-19T09:54:15;21.60;99.90
21104;DHT22;10710;53.398;-1.514;2023-06-19T09:57:01;21.80;99.90
21104;DHT22;10710;53.398;-1.514;2023-06-19T09:59:54;22.00;99.90
21104;DHT22;10710;53.398;-1.514;2023-06-19T10:02:45;22.20;99.90
21104;DHT22;10710;53.398;-1.514;2023-06-19T10:05:31;22.20;99.90
21104;DHT22;10710;53.398;-1.514;2023-06-19T10:08:29;22.40;99.90
21104;DHT22;10710;53.398;-1.514;2023-06-19T10:11:14;22.20;99.90
21104;DHT22;10710;53.398;-1.514;2023-06-19T10:14:06;22.10;99.90
21104;DHT22;10710;53.398;-1.514;2023-06-19T10:16:51;21.90;99.90
21104;DHT22;10710;53.398;-1.514;2023-06-19T10:19:35;21.90;99.90
21104;DHT22;10710;53.398;-1.514;2023-06-19T10:22:20;22.00;99.90
21104;DHT22;10710;53.398;-1.514;2023-06-19T10:25:08;22.10;99.90
21104;DHT22;10710;53.398;-1.514;2023-06-19T10:27:53;22.10;99.90
21104;DHT22;10710;53.398;-1.514;2023-06-19T10:30:38;22.10;99.90
21104;DHT22;10710;53.398;-1.514;2023-06-19T10:33:27;22.30;99.90
21104;DHT22;10710;53.398;-1.514;2023-06-19T10:36:16;22.50;99.90
21104;DHT22;10710;53.398;-1.514;2023-06-19T10:39:01;22.40;99.90
21104;DHT22;10710;53.398;-1.514;2023-06-19T10:41:46;22.30;99.90
21104;DHT22;10710;53.398;-1.514;2023-06-19T10:44:30;22.40;99.90
21104;DHT22;10710;53.398;-1.514;2023-06-19T10:47:14;22.50;99.90
21104;DHT22;10710;53.398;-1.514;2023-06-19T10:50:00;22.80;99.90
21104;DHT22;10710;53.398;-1.514;2023-06-19T10:52:45;23.10;99.90
21104;DHT22;10710;53.398;-1.514;2023-06-19T10:55:29;23.40;99.90
21104;DHT22;10710;53.398;-1.514;2023-06-19T10:58:14;23.40;99.90
21104;DHT22;10710;53.398;-1.514;2023-06-19T11:00:58;23.70;99.90
21104;DHT22;10710;53.398;-1.514;2023-06-19T11:03:43;23.80;99.90
21104;DHT22;10710;53.398;-1.514;2023-06-19T11:06:28;23.90;99.90
21104;DHT22;10710;53.398;-1.514;2023-06-19T11:09:13;24.10;99.90
21104;DHT22;10710;53.398;-1.514;2023-06-19T11:11:57;24.00;99.90
21104;DHT22;10710;53.398;-1.514;2023-06-19T11:14:42;24.00;99.90
21104;DHT22;10710;53.398;-1.514;2023-06-19T11:17:27;23.90;99.90
21104;DHT22;10710;53.398;-1.514;2023-06-19T11:20:12;23.90;99.90
21104;DHT22;10710;53.398;-1.514;2023-06-19T11:23:00;24.00;99.90
21104;DHT22;10710;53.398;-1.514;2023-06-19T11:25:44;24.40;99.90
21104;DHT22;10710;53.398;-1.514;2023-06-19T11:28:28;24.70;99.90
21104;DHT22;10710;53.398;-1.514;2023-06-19T11:31:13;25.00;99.90
21104;DHT22;10710;53.398;-1.514;2023-06-19T11:33:59;25.00;99.90
21104;DHT22;10710;53.398;-1.514;2023-06-19T11:36:43;25.00;99.90
21104;DHT22;10710;53.398;-1.514;2023-06-19T11:39:28;25.20;99.90
21104;DHT22;10710;53.398;-1.514;2023-06-19T11:42:13;25.40;99.90
21104;DHT22;10710;53.398;-1.514;2023-06-19T11:45:03;25.60;99.90
21104;DHT22;10710;53.398;-1.514;2023-06-19T11:47:52;25.60;99.90
21104;DHT22;10710;53.398;-1.514;2023-06-19T11:50:36;25.50;99.90
21104;DHT22;10710;53.398;-1.514;2023-06-19T11:53:21;25.40;99.90
21104;DHT22;10710;53.398;-1.514;2023-06-19T11:56:06;24.90;99.90
21104;DHT22;10710;53.398;-1.514;2023-06-19T11:58:50;24.80;99.90
21104;DHT22;10710;53.398;-1.514;2023-06-19T12:01:35;24.60;99.90
21104;DHT22;10710;53.398;-1.514;2023-06-19T12:04:20;24.30;99.90
21104;DHT22;10710;53.398;-1.514;2023-06-19T12:07:05;24.20;99.90
21104;DHT22;10710;53.398;-1.514;2023-06-19T12:09:50;24.10;99.90
21104;DHT22;10710;53.398;-1.514;2023-06-19T12:12:36;24.40;99.90
21104;DHT22;10710;53.398;-1.514;2023-06-19T12:15:22;24.30;99.90
21104;DHT22;10710;53.398;-1.514;2023-06-19T12:18:07;24.50;99.90
21104;DHT22;10710;53.398;-1.514;2023-06-19T12:20:51;24.30;99.90
21104;DHT22;10710;53.398;-1.514;2023-06-19T12:23:36;24.20;99.90
21104;DHT22;10710;53.398;-1.514;2023-06-19T12:26:21;24.30;99.90
21104;DHT22;10710;53.398;-1.514;2023-06-19T12:29:06;24.60;99.90
21104;DHT22;10710;53.398;-1.514;2023-06-19T12:31:51;24.60;99.90
21104;DHT22;10710;53.398;-1.514;2023-06-19T12:34:36;25.00;99.90
21104;DHT22;10710;53.398;-1.514;2023-06-19T12:37:21;25.50;99.90
21104;DHT22;10710;53.398;-1.514;2023-06-19T12:40:06;25.70;99.90
21104;DHT22;10710;53.398;-1.514;2023-06-19T12:42:55;25.90;99.90
21104;DHT22;10710;53.398;-1.514;2023-06-19T12:45:39;26.30;99.90
21104;DHT22;10710;53.398;-1.514;2023-06-19T12:48:26;26.50;99.90
21104;DHT22;10710;53.398;-1.514;2023-06-19T12:51:10;26.50;99.90
21104;DHT22;10710;53.398;-1.514;2023-06-19T12:53:55;26.30;99.90
21104;DHT22;10710;53.398;-1.514;2023-06-19T12:56:40;26.50;99.90
21104;DHT22;10710;53.398;-1.514;2023-06-19T12:59:25;26.50;99.90
21104;DHT22;10710;53.398;-1.514;2023-06-19T13:02:09;26.60;99.90
21104;DHT22;10710;53.398;-1.514;2023-06-19T13:04:53;26.70;99.90
21104;DHT22;10710;53.398;-1.514;2023-06-19T13:07:38;26.90;99.90
21104;DHT22;10710;53.398;-1.514;2023-06-19T13:10:22;26.60;99.90
21104;DHT22;10710;53.398;-1.514;2023-06-19T13:13:06;26.70;99.90
21104;DHT22;10710;53.398;-1.514;2023-06-19T13:15:51;27.60;99.90
21104;DHT22;10710;53.398;-1.514;2023-06-19T13:18:35;28.60;99.90
21104;DHT22;10710;53.398;-1.514;2023-06-19T13:21:19;28.80;99.90
21104;DHT22;10710;53.398;-1.514;2023-06-19T13:24:04;28.30;99.90
21104;DHT22;10710;53.398;-1.514;2023-06-19T13:26:49;28.30;99.90
21104;DHT22;10710;53.398;-1.514;2023-06-19T13:29:34;27.90;99.90
21104;DHT22;10710;53.398;-1.514;2023-06-19T13:32:18;27.70;99.90
21104;DHT22;10710;53.398;-1.514;2023-06-19T13:35:05;27.50;99.90
21104;DHT22;10710;53.398;-1.514;2023-06-19T13:37:50;27.00;99.90
21104;DHT22;10710;53.398;-1.514;2023-06-19T13:40:34;26.90;99.90
21104;DHT22;10710;53.398;-1.514;2023-06-19T13:43:19;27.30;99.90
21104;DHT22;10710;53.398;-1.514;2023-06-19T13:46:07;27.20;99.90
21104;DHT22;10710;53.398;-1.514;2023-06-19T13:48:52;28.00;99.90
21104;DHT22;10710;53.398;-1.514;2023-06-19T13:51:37;29.00;99.90
21104;DHT22;10710;53.398;-1.514;2023-06-19T13:54:22;29.20;99.90
21104;DHT22;10710;53.398;-1.514;2023-06-19T13:57:27;29.40;99.90
21104;DHT22;10710;53.398;-1.514;2023-06-19T14:03:24;28.40;99.90
21104;DHT22;10710;53.398;-1.514;2023-06-19T14:06:29;28.40;99.90
21104;DHT22;10710;53.398;-1.514;2023-06-19T14:09:32;29.50;99.90
21104;DHT22;10710;53.398;-1.514;2023-06-19T14:12:28;30.30;99.90
21104;DHT22;10710;53.398;-1.514;2023-06-19T14:15:18;30.10;99.90
21104;DHT22;10710;53.398;-1.514;2023-06-19T14:18:02;29.40;99.90
21104;DHT22;10710;53.398;-1.514;2023-06-19T14:20:47;28.60;99.90
21104;DHT22;10710;53.398;-1.514;2023-06-19T14:23:32;27.70;99.90
21104;DHT22;10710;53.398;-1.514;2023-06-19T14:26:38;27.30;99.90
21104;DHT22;10710;53.398;-1.514;2023-06-19T14:29:36;26.80;99.90
21104;DHT22;10710;53.398;-1.514;2023-06-19T14:36:06;27.80;99.90
21104;DHT22;10710;53.398;-1.514;2023-06-19T14:38:54;28.20;99.90
21104;DHT22;10710;53.398;-1.514;2023-06-19T14:42:09;28.30;99.90
21104;DHT22;10710;53.398;-1.514;2023-06-19T14:44:58;29.40;99.90
21104;DHT22;10710;53.398;-1.514;2023-06-19T14:47:48;30.00;99.90
21104;DHT22;10710;53.398;-1.514;2023-06-19T14:50:33;30.40;99.90
21104;DHT22;10710;53.398;-1.514;2023-06-19T14:53:21;30.60;99.90
21104;DHT22;10710;53.398;-1.514;2023-06-19T14:56:11;30.40;99.90
21104;DHT22;10710;53.398;-1.514;2023-06-19T14:58:59;29.40;99.90
21104;DHT22;10710;53.398;-1.514;2023-06-19T15:01:44;29.30;99.90
21104;DHT22;10710;53.398;-1.514;2023-06-19T15:04:32;29.30;99.90
21104;DHT22;10710;53.398;-1.514;2023-06-19T15:07:16;29.20;99.90
21104;DHT22;10710;53.398;-1.514;2023-06-19T15:10:01;28.60;99.90
21104;DHT22;10710;53.398;-1.514;2023-06-19T15:12:45;28.80;99.90
21104;DHT22;10710;53.398;-1.514;2023-06-19T15:15:29;30.10;99.90
21104;DHT22;10710;53.398;-1.514;2023-06-19T15:18:14;30.70;99.90
21104;DHT22;10710;53.398;-1.514;2023-06-19T15:20:58;30.10;99.90
21104;DHT22;10710;53.398;-1.514;2023-06-19T15:23:42;29.60;99.90
21104;DHT22;10710;53.398;-1.514;2023-06-19T15:26:27;30.30;99.90
21104;DHT22;10710;53.398;-1.514;2023-06-19T15:29:12;31.40;99.90
21104;DHT22;10710;53.398;-1.514;2023-06-19T15:31:57;31.40;99.90
21104;DHT22;10710;53.398;-1.514;2023-06-19T15:34:41;31.50;99.90
21104;DHT22;10710;53.398;-1.514;2023-06-19T15:37:25;32.40;99.90
21104;DHT22;10710;53.398;-1.514;2023-06-19T15:40:10;33.90;99.90
21104;DHT22;10710;53.398;-1.514;2023-06-19T15:42:55;34.30;99.90
21104;DHT22;10710;53.398;-1.514;2023-06-19T15:45:40;34.40;99.90
21104;DHT22;10710;53.398;-1.514;2023-06-19T15:48:24;34.80;99.90
21104;DHT22;10710;53.398;-1.514;2023-06-19T15:51:09;34.80;99.90
21104;DHT22;10710;53.398;-1.514;2023-06-19T15:53:54;35.50;99.90
21104;DHT22;10710;53.398;-1.514;2023-06-19T15:56:39;35.30;99.80
21104;DHT22;10710;53.398;-1.514;2023-06-19T15:59:24;34.60;99.50
21104;DHT22;10710;53.398;-1.514;2023-06-19T16:02:08;34.10;99.90
21104;DHT22;10710;53.398;-1.514;2023-06-19T16:04:52;34.40;99.70
21104;DHT22;10710;53.398;-1.514;2023-06-19T16:07:36;32.80;99.90
21104;DHT22;10710;53.398;-1.514;2023-06-19T16:10:21;33.40;99.90
21104;DHT22;10710;53.398;-1.514;2023-06-19T16:13:05;33.20;98.40
21104;DHT22;10710;53.398;-1.514;2023-06-19T16:15:50;32.60;99.90
21104;DHT22;10710;53.398;-1.514;2023-06-19T16:18:35;32.00;99.90
21104;DHT22;10710;53.398;-1.514;2023-06-19T16:21:19;31.10;99.90
21104;DHT22;10710;53.398;-1.514;2023-06-19T16:24:05;30.90;99.90
21104;DHT22;10710;53.398;-1.514;2023-06-19T16:26:49;31.70;99.90
21104;DHT22;10710;53.398;-1.514;2023-06-19T16:29:34;33.40;99.90
21104;DHT22;10710;53.398;-1.514;2023-06-19T16:32:19;35.00;99.90
21104;DHT22;10710;53.398;-1.514;2023-06-19T16:35:04;35.80;98.30
21104;DHT22;10710;53.398;-1.514;2023-06-19T16:37:50;36.20;97.50
21104;DHT22;10710;53.398;-1.514;2023-06-19T16:40:37;36.40;97.00
21104;DHT22;10710;53.398;-1.514;2023-06-19T16:43:22;36.40;96.40
21104;DHT22;10710;53.398;-1.514;2023-06-19T16:46:06;36.50;97.40
21104;DHT22;10710;53.398;-1.514;2023-06-19T16:48:51;36.60;96.80
21104;DHT22;10710;53.398;-1.514;2023-06-19T16:51:36;36.00;96.20
21104;DHT22;10710;53.398;-1.514;2023-06-19T16:54:20;35.10;96.60
21104;DHT22;10710;53.398;-1.514;2023-06-19T16:57:05;35.00;96.70
21104;DHT22;10710;53.398;-1.514;2023-06-19T16:59:49;35.60;96.40
21104;DHT22;10710;53.398;-1.514;2023-06-19T17:02:33;36.20;95.20
21104;DHT22;10710;53.398;-1.514;2023-06-19T17:05:18;35.90;96.00
21104;DHT22;10710;53.398;-1.514;2023-06-19T17:08:03;35.20;96.30
21104;DHT22;10710;53.398;-1.514;2023-06-19T17:10:47;34.40;95.70
21104;DHT22;10710;53.398;-1.514;2023-06-19T17:13:32;33.40;96.50
21104;DHT22;10710;53.398;-1.514;2023-06-19T17:16:16;33.10;96.70
21104;DHT22;10710;53.398;-1.514;2023-06-19T17:19:01;32.50;97.60
21104;DHT22;10710;53.398;-1.514;2023-06-19T17:21:49;32.40;97.50
21104;DHT22;10710;53.398;-1.514;2023-06-19T17:24:34;32.90;97.80
21104;DHT22;10710;53.398;-1.514;2023-06-19T17:27:18;33.70;96.70
21104;DHT22;10710;53.398;-1.514;2023-06-19T17:30:04;33.30;95.80
21104;DHT22;10710;53.398;-1.514;2023-06-19T17:32:49;33.40;96.40
21104;DHT22;10710;53.398;-1.514;2023-06-19T17:35:33;33.30;96.70
21104;DHT22;10710;53.398;-1.514;2023-06-19T17:38:18;32.60;96.80
21104;DHT22;10710;53.398;-1.514;2023-06-19T17:41:02;31.20;98.10
21104;DHT22;10710;53.398;-1.514;2023-06-19T17:43:49;30.30;98.30
21104;DHT22;10710;53.398;-1.514;2023-06-19T17:46:34;29.70;99.40
21104;DHT22;10710;53.398;-1.514;2023-06-19T17:49:19;28.90;99.60
21104;DHT22;10710;53.398;-1.514;2023-06-19T17:52:05;27.60;99.90
21104;DHT22;10710;53.398;-1.514;2023-06-19T17:54:49;26.70;99.90
21104;DHT22;10710;53.398;-1.514;2023-06-19T17:57:37;25.90;99.90
21104;DHT22;10710;53.398;-1.514;2023-06-19T18:00:21;25.10;99.90
21104;DHT22;10710;53.398;-1.514;2023-06-19T18:03:06;25.10;99.90
21104;DHT22;10710;53.398;-1.514;2023-06-19T18:05:52;25.20;99.90
21104;DHT22;10710;53.398;-1.514;2023-06-19T18:08:36;25.20;99.90
21104;DHT22;10710;53.398;-1.514;2023-06-19T18:11:21;25.20;99.90
21104;DHT22;10710;53.398;-1.514;2023-06-19T18:14:05;24.90;99.90